createdAt,value
2019-01-29T00:00:33.753Z,0.30
2019-01-29T00:03:02.223Z,0.40
2019-01-29T00:05:30.637Z,0.40
2019-01-29T00:07:59.031Z,0.40
2019-01-29T00:10:27.444Z,0.40
2019-01-29T00:12:55.857Z,0.40
2019-01-29T00:15:24.392Z,0.30
2019-01-29T00:17:52.876Z,0.30
2019-01-29T00:20:21.280Z,0.30
2019-01-29T00:22:49.687Z,0.40
2019-01-29T00:25:18.170Z,0.30
2019-01-29T00:27:46.642Z,0.30
2019-01-29T00:30:16.284Z,0.30
2019-01-29T00:32:44.700Z,0.30
2019-01-29T00:35:13.548Z,0.30
2019-01-29T00:37:41.948Z,0.30
2019-01-29T00:40:12.187Z,0.30
2019-01-29T00:42:40.597Z,0.30
2019-01-29T00:45:12.203Z,0.30
2019-01-29T00:47:40.608Z,0.30
2019-01-29T00:50:11.174Z,0.30
2019-01-29T00:52:41.985Z,0.20
2019-01-29T00:55:12.705Z,0.20
2019-01-29T00:57:41.108Z,0.20
2019-01-29T01:00:15.243Z,0.10
2019-01-29T01:02:43.652Z,0.20
2019-01-29T01:05:12.200Z,0.20
2019-01-29T01:07:40.667Z,0.20
2019-01-29T01:10:11.819Z,0.10
2019-01-29T01:12:40.222Z,0.00
2019-01-29T01:15:10.773Z,0.00
2019-01-29T01:17:39.175Z,-0.10
2019-01-29T01:20:11.133Z,-0.20
2019-01-29T01:22:39.603Z,-0.20
2019-01-29T01:25:09.363Z,-0.20
2019-01-29T01:27:37.760Z,-0.30
2019-01-29T01:30:12.380Z,-0.30
2019-01-29T01:32:40.783Z,-0.30
2019-01-29T01:35:09.334Z,-0.30
2019-01-29T01:37:37.743Z,-0.30
2019-01-29T01:40:09.244Z,-0.20
2019-01-29T01:42:37.643Z,-0.20
2019-01-29T01:45:09.097Z,-0.30
2019-01-29T01:47:37.503Z,-0.30
2019-01-29T01:50:07.860Z,-0.30
2019-01-29T01:52:36.267Z,-0.40
2019-01-29T01:55:07.124Z,-0.40
2019-01-29T01:57:35.532Z,-0.40
2019-01-29T02:00:06.525Z,-0.50
2019-01-29T02:02:34.936Z,-0.50
2019-01-29T02:05:03.720Z,-0.50
2019-01-29T02:07:32.123Z,-0.50
2019-01-29T02:10:00.624Z,-0.50
2019-01-29T02:12:29.101Z,-0.60
2019-01-29T02:14:57.516Z,-0.60
2019-01-29T02:17:25.919Z,-0.60
2019-01-29T02:19:54.331Z,-0.60
2019-01-29T02:22:22.775Z,-0.60
2019-01-29T02:24:51.180Z,-0.60
2019-01-29T02:27:19.595Z,-0.60
2019-01-29T02:29:48.013Z,-0.60
2019-01-29T02:32:16.435Z,-0.60
2019-01-29T02:34:44.916Z,-0.60
2019-01-29T02:37:13.337Z,-0.60
2019-01-29T02:39:41.756Z,-0.60
2019-01-29T02:42:10.171Z,-0.60
2019-01-29T02:44:38.575Z,-0.60
2019-01-29T02:47:06.987Z,-0.60
2019-01-29T02:49:35.404Z,-0.60
2019-01-29T02:52:03.973Z,-0.60
2019-01-29T02:54:32.375Z,-0.60
2019-01-29T02:57:00.791Z,-0.50
2019-01-29T02:59:29.197Z,-0.50
2019-01-29T03:01:57.612Z,-0.50
2019-01-29T03:04:26.021Z,-0.50
2019-01-29T03:06:54.437Z,-0.40
2019-01-29T03:09:22.841Z,-0.40
2019-01-29T03:11:51.253Z,-0.40
2019-01-29T03:14:19.663Z,-0.40
2019-01-29T03:16:48.080Z,-0.40
2019-01-29T03:19:16.484Z,-0.30
2019-01-29T03:21:44.896Z,-0.30
2019-01-29T03:24:13.304Z,-0.30
2019-01-29T03:26:41.792Z,-0.30
2019-01-29T03:29:10.199Z,-0.20
2019-01-29T03:31:38.685Z,-0.20
2019-01-29T03:34:07.172Z,-0.20
2019-01-29T03:36:35.580Z,-0.10
2019-01-29T03:39:06.400Z,-0.10
2019-01-29T03:41:34.881Z,-0.10
2019-01-29T03:44:03.288Z,-0.10
2019-01-29T03:46:31.704Z,-0.10
2019-01-29T03:49:00.125Z,-0.10
2019-01-29T03:51:28.598Z,-0.20
2019-01-29T03:53:57.007Z,-0.20
2019-01-29T03:56:25.408Z,-0.10
2019-01-29T03:58:53.828Z,-0.10
2019-01-29T04:01:22.240Z,-0.10
2019-01-29T04:03:50.731Z,-0.10
2019-01-29T04:06:19.212Z,0.00
2019-01-29T04:08:47.628Z,-0.10
2019-01-29T04:11:16.049Z,0.00
2019-01-29T04:13:44.445Z,0.00
2019-01-29T04:16:12.848Z,0.00
2019-01-29T04:18:41.341Z,0.00
2019-01-29T04:21:09.812Z,0.00
2019-01-29T04:23:47.117Z,0.00
2019-01-29T04:26:08.348Z,0.00
2019-01-29T04:28:36.755Z,0.00
2019-01-29T04:31:05.232Z,0.10
2019-01-29T04:33:33.644Z,0.10
2019-01-29T04:36:02.040Z,0.10
2019-01-29T04:38:30.463Z,0.00
2019-01-29T04:40:58.937Z,0.10
2019-01-29T04:43:27.347Z,0.10
2019-01-29T04:45:55.831Z,0.20
2019-01-29T04:48:24.235Z,0.20
2019-01-29T04:50:52.645Z,0.20
2019-01-29T04:53:21.061Z,0.20
2019-01-29T04:55:49.455Z,0.20
2019-01-29T04:58:17.868Z,0.30
2019-01-29T05:00:46.279Z,0.20
2019-01-29T05:03:14.692Z,0.30
2019-01-29T05:05:43.096Z,0.30
2019-01-29T05:08:11.524Z,0.30
2019-01-29T05:10:39.988Z,0.30
2019-01-29T05:13:08.400Z,0.30
2019-01-29T05:15:36.801Z,0.30
2019-01-29T05:18:05.275Z,0.40
2019-01-29T05:20:33.679Z,0.40
2019-01-29T05:23:02.091Z,0.40
2019-01-29T05:25:30.501Z,0.40
2019-01-29T05:27:58.916Z,0.40
2019-01-29T05:30:27.387Z,0.30
2019-01-29T05:32:55.804Z,0.30
2019-01-29T05:35:24.280Z,0.30
2019-01-29T05:37:52.691Z,0.20
2019-01-29T05:40:22.534Z,0.20
2019-01-29T05:42:50.999Z,0.20
2019-01-29T05:45:20.941Z,0.20
2019-01-29T05:47:49.364Z,0.20
2019-01-29T05:50:18.179Z,0.20
2019-01-29T05:52:46.587Z,0.20
2019-01-29T05:55:16.129Z,0.10
2019-01-29T05:57:44.717Z,0.20
2019-01-29T06:00:21.592Z,0.20
2019-01-29T06:02:50.008Z,0.20
2019-01-29T06:05:18.804Z,0.20
2019-01-29T06:07:47.207Z,0.30
2019-01-29T06:10:16.851Z,0.30
2019-01-29T06:12:45.261Z,0.30
2019-01-29T06:15:21.535Z,0.30
2019-01-29T06:17:50.015Z,0.30
2019-01-29T06:20:20.552Z,0.30
2019-01-29T06:22:49.036Z,0.30
2019-01-29T06:25:17.665Z,0.30
2019-01-29T06:27:46.336Z,0.30
2019-01-29T06:30:19.788Z,0.20
2019-01-29T06:32:48.453Z,0.30
2019-01-29T06:35:18.230Z,0.30
2019-01-29T06:37:46.711Z,0.30
2019-01-29T06:40:17.865Z,0.20
2019-01-29T06:42:46.336Z,0.30
2019-01-29T06:45:17.359Z,0.30
2019-01-29T06:47:45.824Z,0.20
2019-01-29T06:50:16.481Z,0.20
2019-01-29T06:52:45.048Z,0.20
2019-01-29T06:55:15.867Z,0.20
2019-01-29T06:57:44.272Z,0.20
2019-01-29T07:00:15.595Z,0.20
2019-01-29T07:02:44.151Z,0.30
2019-01-29T07:05:12.700Z,0.30
2019-01-29T07:07:41.103Z,0.30
2019-01-29T07:10:18.272Z,0.30
2019-01-29T07:12:46.681Z,0.30
2019-01-29T07:15:37.599Z,0.30
2019-01-29T07:18:07.985Z,0.30
2019-01-29T07:20:36.464Z,0.30
2019-01-29T07:23:05.316Z,0.30
2019-01-29T07:25:33.715Z,0.40
2019-01-29T07:28:02.132Z,0.40
2019-01-29T07:30:30.534Z,0.40
2019-01-29T07:32:58.950Z,0.40
2019-01-29T07:35:27.343Z,0.40
2019-01-29T07:37:55.756Z,0.50
2019-01-29T07:40:27.012Z,0.50
2019-01-29T07:42:55.424Z,0.50
2019-01-29T07:45:24.169Z,0.60
2019-01-29T07:47:52.580Z,0.50
2019-01-29T07:50:20.979Z,0.60
2019-01-29T07:52:49.402Z,0.60
2019-01-29T07:55:17.843Z,0.70
2019-01-29T07:57:46.244Z,0.70
2019-01-29T08:00:16.665Z,0.70
2019-01-29T08:02:45.071Z,0.80
2019-01-29T08:05:13.480Z,0.80
2019-01-29T08:07:42.015Z,0.90
2019-01-29T08:10:17.254Z,0.90
2019-01-29T08:12:45.656Z,1.00
2019-01-29T08:15:18.756Z,1.00
2019-01-29T08:17:47.220Z,1.00
2019-01-29T08:20:16.976Z,1.00
2019-01-29T08:22:45.580Z,1.00
2019-01-29T08:25:14.129Z,1.00
2019-01-29T08:27:42.615Z,1.10
2019-01-29T08:30:18.700Z,1.10
2019-01-29T08:32:47.104Z,1.10
2019-01-29T08:35:17.068Z,1.10
2019-01-29T08:37:45.547Z,1.10
2019-01-29T08:40:15.593Z,1.20
2019-01-29T08:42:44.005Z,1.20
2019-01-29T08:45:16.511Z,1.20
2019-01-29T08:47:45.099Z,1.10
2019-01-29T08:50:16.587Z,1.20
2019-01-29T08:52:44.987Z,1.20
2019-01-29T08:55:13.465Z,1.10
2019-01-29T08:57:41.939Z,1.20
2019-01-29T09:00:13.678Z,1.40
2019-01-29T09:02:42.156Z,1.30
2019-01-29T09:05:10.799Z,1.40
2019-01-29T09:07:39.343Z,1.40
2019-01-29T09:10:10.856Z,1.30
2019-01-29T09:12:39.340Z,1.30
2019-01-29T09:15:13.449Z,1.20
2019-01-29T09:17:41.998Z,1.20
2019-01-29T09:20:12.943Z,1.00
2019-01-29T09:22:41.349Z,1.00
2019-01-29T09:25:19.554Z,1.00
2019-01-29T09:27:42.359Z,1.10
2019-01-29T09:30:16.319Z,1.10
2019-01-29T09:32:44.864Z,1.00
2019-01-29T09:35:13.419Z,0.80
2019-01-29T09:37:41.901Z,0.70
2019-01-29T09:40:13.616Z,0.70
2019-01-29T09:42:42.024Z,0.70
2019-01-29T09:45:13.174Z,0.80
2019-01-29T09:47:41.575Z,0.70
2019-01-29T09:50:13.028Z,0.80
2019-01-29T09:52:41.432Z,0.70
2019-01-29T09:55:13.679Z,0.80
2019-01-29T09:57:42.160Z,0.90
2019-01-29T10:00:13.644Z,1.00
2019-01-29T10:02:42.993Z,1.00
2019-01-29T10:05:11.468Z,1.10
2019-01-29T10:07:39.884Z,1.20
2019-01-29T10:10:11.190Z,1.30
2019-01-29T10:12:39.605Z,1.30
2019-01-29T10:15:17.241Z,1.30
2019-01-29T10:17:46.368Z,1.30
2019-01-29T10:20:15.451Z,1.20
2019-01-29T10:22:44.408Z,1.20
2019-01-29T10:25:14.634Z,1.20
2019-01-29T10:27:43.627Z,1.20
2019-01-29T10:30:15.273Z,1.30
2019-01-29T10:32:44.029Z,1.30
2019-01-29T10:35:15.903Z,1.40
2019-01-29T10:37:44.368Z,1.40
2019-01-29T10:40:15.873Z,1.50
2019-01-29T10:42:44.424Z,1.70
2019-01-29T10:45:15.431Z,1.70
2019-01-29T10:47:43.915Z,1.60
2019-01-29T10:50:15.329Z,1.70
2019-01-29T10:52:43.979Z,1.90
2019-01-29T10:55:12.522Z,2.20
2019-01-29T10:57:41.004Z,2.50
2019-01-29T11:00:14.975Z,2.70
2019-01-29T11:02:43.447Z,2.90
2019-01-29T11:05:14.599Z,2.80
2019-01-29T11:07:43.018Z,2.80
2019-01-29T11:10:14.468Z,2.70
2019-01-29T11:12:42.944Z,2.70
2019-01-29T11:15:23.546Z,2.80
2019-01-29T11:17:52.084Z,2.70
2019-01-29T11:20:20.634Z,2.70
2019-01-29T11:22:49.208Z,2.70
2019-01-29T11:25:20.533Z,2.90
2019-01-29T11:27:48.999Z,3.00
2019-01-29T11:30:23.423Z,2.90
2019-01-29T11:32:51.827Z,3.00
2019-01-29T11:35:20.239Z,3.00
2019-01-29T11:37:48.640Z,2.90
2019-01-29T11:40:25.939Z,2.90
2019-01-29T11:42:54.412Z,2.80
2019-01-29T11:45:25.631Z,2.90
2019-01-29T11:47:54.031Z,2.70
2019-01-29T11:50:22.513Z,2.60
2019-01-29T11:52:50.979Z,2.60
2019-01-29T11:55:19.468Z,2.70
2019-01-29T11:57:47.948Z,2.80
2019-01-29T12:00:26.660Z,3.00
2019-01-29T12:02:55.287Z,3.10
2019-01-29T12:05:23.687Z,3.20
2019-01-29T12:07:52.167Z,3.20
2019-01-29T12:10:20.654Z,3.20
2019-01-29T12:12:49.056Z,3.10
2019-01-29T12:15:19.606Z,3.00
2019-01-29T12:17:48.181Z,2.90
2019-01-29T12:20:18.048Z,2.80
2019-01-29T12:22:46.450Z,2.70
2019-01-29T12:25:15.187Z,2.70
2019-01-29T12:27:43.671Z,2.70
2019-01-29T12:30:22.999Z,2.80
2019-01-29T12:32:52.262Z,2.90
2019-01-29T12:35:20.910Z,3.00
2019-01-29T12:37:49.383Z,3.10
2019-01-29T12:40:17.929Z,3.30
2019-01-29T12:42:47.392Z,3.40
2019-01-29T12:45:18.199Z,3.50
2019-01-29T12:47:46.743Z,3.50
2019-01-29T12:50:24.428Z,3.60
2019-01-29T12:53:00.691Z,3.50
2019-01-29T12:55:29.247Z,3.50
2019-01-29T12:57:57.716Z,3.60
2019-01-29T13:00:27.905Z,3.50
2019-01-29T13:02:56.304Z,3.50
2019-01-29T13:05:24.725Z,3.40
2019-01-29T13:07:53.131Z,3.50
2019-01-29T13:10:23.183Z,3.70
2019-01-29T13:12:51.724Z,3.90
2019-01-29T13:15:30.698Z,4.10
2019-01-29T13:18:00.348Z,4.20
2019-01-29T13:20:28.897Z,4.30
2019-01-29T13:22:57.650Z,4.40
2019-01-29T13:25:26.299Z,4.30
2019-01-29T13:27:54.707Z,4.30
2019-01-29T13:30:27.838Z,4.00
2019-01-29T13:32:56.237Z,3.70
2019-01-29T13:35:27.654Z,3.60
2019-01-29T13:37:56.130Z,3.60
2019-01-29T13:40:24.672Z,3.50
2019-01-29T13:42:53.135Z,3.50
2019-01-29T13:45:22.183Z,3.50
2019-01-29T13:47:50.823Z,3.60
2019-01-29T13:50:25.018Z,3.70
2019-01-29T13:52:53.588Z,3.80
2019-01-29T13:55:22.056Z,3.80
2019-01-29T13:57:50.612Z,4.00
2019-01-29T14:00:27.889Z,4.10
2019-01-29T14:02:56.290Z,4.30
2019-01-29T14:05:24.692Z,4.30
2019-01-29T14:07:53.175Z,4.30
2019-01-29T14:10:21.640Z,4.30
2019-01-29T14:12:50.120Z,4.30
2019-01-29T14:15:24.396Z,4.40
2019-01-29T14:17:52.882Z,4.40
2019-01-29T14:20:21.347Z,4.30
2019-01-29T14:22:49.860Z,4.10
2019-01-29T14:25:18.260Z,3.90
2019-01-29T14:27:46.735Z,3.80
2019-01-29T14:30:18.064Z,3.90
2019-01-29T14:32:46.606Z,4.00
2019-01-29T14:35:15.157Z,3.80
2019-01-29T14:38:01.805Z,4.00
2019-01-29T14:40:31.619Z,3.80
2019-01-29T14:43:00.028Z,3.70
2019-01-29T14:45:32.021Z,3.70
2019-01-29T14:48:00.500Z,3.80
2019-01-29T14:50:29.140Z,3.70
2019-01-29T14:52:57.572Z,3.70
2019-01-29T14:55:26.039Z,3.70
2019-01-29T14:57:54.442Z,3.60
2019-01-29T15:00:25.987Z,3.60
2019-01-29T15:02:54.392Z,3.60
2019-01-29T15:05:22.793Z,3.60
2019-01-29T15:07:51.267Z,3.60
2019-01-29T15:10:25.083Z,3.50
2019-01-29T15:12:53.623Z,3.40
2019-01-29T15:15:31.263Z,3.30
2019-01-29T15:18:15.996Z,3.40
2019-01-29T15:20:44.410Z,3.40
2019-01-29T15:23:12.884Z,3.10
2019-01-29T15:25:41.299Z,2.90
2019-01-29T15:28:09.767Z,2.80
2019-01-29T15:30:38.261Z,2.70
2019-01-29T15:33:06.911Z,2.60
2019-01-29T15:35:35.319Z,2.60
2019-01-29T15:38:03.952Z,2.40
2019-01-29T15:40:32.376Z,2.30
2019-01-29T15:43:00.812Z,2.30
2019-01-29T15:45:29.463Z,2.10
2019-01-29T15:47:57.931Z,1.90
2019-01-29T15:50:33.919Z,1.80
2019-01-29T15:53:02.478Z,1.70
2019-01-29T15:55:30.879Z,1.60
2019-01-29T15:57:59.295Z,1.50
2019-01-29T16:00:35.263Z,1.30
2019-01-29T16:03:04.428Z,1.30
2019-01-29T16:05:35.915Z,1.20
2019-01-29T16:08:06.632Z,1.10
2019-01-29T16:10:40.115Z,1.00
2019-01-29T16:13:08.856Z,1.00
2019-01-29T16:15:37.424Z,1.00
2019-01-29T16:18:06.084Z,0.90
2019-01-29T16:20:34.488Z,0.80
2019-01-29T16:23:02.904Z,0.70
2019-01-29T16:25:32.880Z,0.70
2019-01-29T16:28:01.344Z,0.60
2019-01-29T16:30:33.747Z,0.50
2019-01-29T16:33:02.155Z,0.50
2019-01-29T16:35:38.078Z,0.50
2019-01-29T16:38:07.909Z,0.40
2019-01-29T16:40:38.772Z,0.40
2019-01-29T16:43:07.238Z,0.30
2019-01-29T16:45:36.694Z,0.20
2019-01-29T16:48:07.044Z,0.20
2019-01-29T16:50:35.596Z,0.10
2019-01-29T16:53:04.940Z,0.10
2019-01-29T16:55:33.369Z,0.00
2019-01-29T16:58:01.859Z,0.00
2019-01-29T17:00:35.672Z,0.00
2019-01-29T17:03:04.567Z,-0.10
2019-01-29T17:05:32.975Z,-0.10
2019-01-29T17:08:01.471Z,-0.20
2019-01-29T17:10:31.927Z,-0.20
2019-01-29T17:13:00.337Z,-0.30
2019-01-29T17:15:35.972Z,-0.30
2019-01-29T17:18:06.322Z,-0.30
2019-01-29T17:20:43.026Z,-0.40
2019-01-29T17:23:11.785Z,-0.40
2019-01-29T17:25:40.289Z,-0.50
2019-01-29T17:28:08.939Z,-0.50
2019-01-29T17:30:42.644Z,-0.50
2019-01-29T17:33:11.573Z,-0.60
2019-01-29T17:35:40.524Z,-0.60
2019-01-29T17:38:09.071Z,-0.60
2019-01-29T17:40:37.656Z,-0.60
2019-01-29T17:43:06.719Z,-0.70
2019-01-29T17:45:38.147Z,-0.70
2019-01-29T17:48:06.797Z,-0.70
2019-01-29T17:50:38.373Z,-0.80
2019-01-29T17:53:06.856Z,-0.80
2019-01-29T17:55:36.708Z,-0.80
2019-01-29T17:58:05.660Z,-0.80
2019-01-29T18:00:35.616Z,-0.90
2019-01-29T18:03:04.667Z,-0.80
2019-01-29T18:05:34.998Z,-0.90
2019-01-29T18:08:03.699Z,-0.90
2019-01-29T18:10:32.176Z,-0.90
2019-01-29T18:13:00.591Z,-0.90
2019-01-29T18:15:30.633Z,-1.00
2019-01-29T18:17:59.039Z,-1.00
2019-01-29T18:20:27.528Z,-1.00
2019-01-29T18:22:56.011Z,-1.00
2019-01-29T18:25:24.568Z,-1.10
2019-01-29T18:28:00.999Z,-1.10
2019-01-29T18:30:31.778Z,-1.10
2019-01-29T18:33:00.187Z,-1.10
2019-01-29T18:35:28.659Z,-1.10
2019-01-29T18:37:57.153Z,-1.10
2019-01-29T18:40:33.889Z,-1.20
2019-01-29T18:43:02.304Z,-1.20
2019-01-29T18:45:30.781Z,-1.20
2019-01-29T18:47:59.194Z,-1.10
2019-01-29T18:50:27.607Z,-1.20
2019-01-29T18:52:56.100Z,-1.20
2019-01-29T18:55:24.573Z,-1.20
2019-01-29T18:57:53.043Z,-1.30
2019-01-29T19:00:23.909Z,-1.30
2019-01-29T19:02:52.327Z,-1.30
2019-01-29T19:05:22.584Z,-1.30
2019-01-29T19:07:51.133Z,-1.40
2019-01-29T19:10:20.884Z,-1.40
2019-01-29T19:12:49.969Z,-1.50
2019-01-29T19:15:21.086Z,-1.50
2019-01-29T19:17:49.564Z,-1.50
2019-01-29T19:20:20.420Z,-1.50
2019-01-29T19:22:48.903Z,-1.50
2019-01-29T19:25:17.743Z,-1.50
2019-01-29T19:27:46.216Z,-1.50
2019-01-29T19:30:20.063Z,-1.50
2019-01-29T19:32:48.486Z,-1.50
2019-01-29T19:35:17.098Z,-1.50
2019-01-29T19:37:45.565Z,-1.50
2019-01-29T19:40:15.624Z,-1.50
2019-01-29T19:42:44.100Z,-1.50
2019-01-29T19:45:15.871Z,-1.50
2019-01-29T19:47:44.275Z,-1.60
2019-01-29T19:50:21.164Z,-1.60
2019-01-29T19:52:49.645Z,-1.60
2019-01-29T19:55:18.200Z,-1.60
2019-01-29T19:57:46.689Z,-1.60
2019-01-29T20:00:20.937Z,-1.50
2019-01-29T20:02:49.354Z,-1.60
2019-01-29T20:05:18.168Z,-1.60
2019-01-29T20:07:46.575Z,-1.70
2019-01-29T20:10:16.921Z,-1.70
2019-01-29T20:12:45.419Z,-1.80
2019-01-29T20:15:16.364Z,-1.80
2019-01-29T20:17:45.016Z,-1.80
2019-01-29T20:20:16.732Z,-1.80
2019-01-29T20:22:45.140Z,-1.80
2019-01-29T20:25:13.627Z,-1.80
2019-01-29T20:27:42.039Z,-1.90
2019-01-29T20:30:19.388Z,-1.90
2019-01-29T20:32:53.491Z,-1.90
2019-01-29T20:35:17.921Z,-1.90
2019-01-29T20:37:46.325Z,-2.00
2019-01-29T20:40:17.181Z,-2.00
2019-01-29T20:42:45.592Z,-2.10
2019-01-29T20:45:15.432Z,-2.00
2019-01-29T20:47:43.868Z,-2.10
2019-01-29T20:50:18.039Z,-2.00
2019-01-29T20:52:46.523Z,-2.00
2019-01-29T20:55:15.063Z,-2.10
2019-01-29T20:57:43.543Z,-2.10
2019-01-29T21:00:17.853Z,-2.10
2019-01-29T21:02:46.268Z,-2.10
2019-01-29T21:05:14.735Z,-2.10
2019-01-29T21:07:43.155Z,-2.20
2019-01-29T21:10:14.700Z,-2.20
2019-01-29T21:12:43.183Z,-2.20
2019-01-29T21:15:17.290Z,-2.20
2019-01-29T21:17:45.774Z,-2.20
2019-01-29T21:20:16.779Z,-2.20
2019-01-29T21:22:45.199Z,-2.20
2019-01-29T21:25:13.843Z,-2.20
2019-01-29T21:27:42.261Z,-2.20
2019-01-29T21:30:19.252Z,-2.30
2019-01-29T21:32:47.679Z,-2.30
2019-01-29T21:35:16.092Z,-2.30
2019-01-29T21:37:44.987Z,-2.40
2019-01-29T21:40:15.845Z,-2.40
2019-01-29T21:42:44.790Z,-2.40
2019-01-29T21:45:18.350Z,-2.40
2019-01-29T21:47:48.327Z,-2.40
2019-01-29T21:50:28.621Z,-2.40
2019-01-29T21:52:57.570Z,-2.40
2019-01-29T21:55:26.655Z,-2.40
2019-01-29T21:57:55.877Z,-2.50
2019-01-29T22:00:32.713Z,-2.60
2019-01-29T22:03:01.198Z,-2.60
2019-01-29T22:05:29.750Z,-2.60
2019-01-29T22:07:58.173Z,-2.60
2019-01-29T22:10:26.830Z,-2.60
2019-01-29T22:12:55.317Z,-2.60
2019-01-29T22:15:24.869Z,-2.70
2019-01-29T22:17:53.347Z,-2.60
2019-01-29T22:20:23.398Z,-2.60
2019-01-29T22:22:51.879Z,-2.60
2019-01-29T22:25:21.742Z,-2.70
2019-01-29T22:27:50.154Z,-2.70
2019-01-29T22:30:24.024Z,-2.70
2019-01-29T22:32:52.429Z,-2.70
2019-01-29T22:35:20.983Z,-2.60
2019-01-29T22:37:49.399Z,-2.70
2019-01-29T22:40:20.537Z,-2.70
2019-01-29T22:42:49.008Z,-2.70
2019-01-29T22:45:18.272Z,-2.80
2019-01-29T22:47:46.855Z,-2.80
2019-01-29T22:50:18.082Z,-2.80
2019-01-29T22:52:46.478Z,-2.80
2019-01-29T22:55:15.147Z,-2.80
2019-01-29T22:57:43.552Z,-2.80
2019-01-29T23:00:48.946Z,-2.90
2019-01-29T23:03:23.035Z,-2.80
2019-01-29T23:06:03.361Z,-2.60
2019-01-29T23:08:31.763Z,-2.60
2019-01-29T23:11:00.182Z,-2.60
2019-01-29T23:13:28.583Z,-2.70
2019-01-29T23:15:57.075Z,-2.80
2019-01-29T23:18:25.480Z,-2.90
2019-01-29T23:20:53.888Z,-2.80
2019-01-29T23:23:22.366Z,-2.80
2019-01-29T23:25:50.788Z,-2.80
2019-01-29T23:28:19.204Z,-2.90
2019-01-29T23:30:47.620Z,-2.80
2019-01-29T23:33:16.044Z,-2.80
2019-01-29T23:35:44.451Z,-2.90
2019-01-29T23:38:12.880Z,-3.00
2019-01-29T23:40:41.288Z,-2.90
2019-01-29T23:43:09.703Z,-2.80
2019-01-29T23:45:38.106Z,-2.80
2019-01-29T23:48:06.592Z,-2.80
2019-01-29T23:50:34.999Z,-2.70
2019-01-29T23:53:03.487Z,-2.70
2019-01-29T23:55:31.887Z,-2.70
2019-01-29T23:58:00.308Z,-2.80
